sensor_id;sensor_type;location;lat;lon;timestamp;P1;durP1;ratioP1;P2;durP2;ratioP2
18973;SDS011;9621;48.690;9.466;2022-12-11T07:34:11;42.60;;;22.03;;
18973;SDS011;9621;48.690;9.466;2022-12-11T07:36:39;40.17;;;22.97;;
18973;SDS011;9621;48.690;9.466;2022-12-11T07:39:06;46.90;;;24.03;;
18973;SDS011;9621;48.690;9.466;2022-12-11T07:41:33;47.03;;;24.63;;
18973;SDS011;9621;48.690;9.466;2022-12-11T07:44:00;43.83;;;25.37;;
18973;SDS011;9621;48.690;9.466;2022-12-11T07:46:29;41.97;;;25.90;;
18973;SDS011;9621;48.690;9.466;2022-12-11T07:48:58;41.27;;;24.83;;
18973;SDS011;9621;48.690;9.466;2022-12-11T07:51:27;39.10;;;23.20;;
18973;SDS011;9621;48.690;9.466;2022-12-11T07:53:57;32.63;;;21.03;;
18973;SDS011;9621;48.690;9.466;2022-12-11T07:56:25;29.27;;;18.83;;
18973;SDS011;9621;48.690;9.466;2022-12-11T07:58:53;28.90;;;18.50;;
18973;SDS011;9621;48.690;9.466;2022-12-11T08:01:21;25.67;;;16.63;;
18973;SDS011;9621;48.690;9.466;2022-12-11T08:03:50;24.03;;;15.47;;
18973;SDS011;9621;48.690;9.466;2022-12-11T08:06:17;22.30;;;15.63;;
18973;SDS011;9621;48.690;9.466;2022-12-11T08:08:46;25.00;;;16.37;;
18973;SDS011;9621;48.690;9.466;2022-12-11T08:11:14;24.93;;;15.33;;
18973;SDS011;9621;48.690;9.466;2022-12-11T08:13:41;25.00;;;15.60;;
18973;SDS011;9621;48.690;9.466;2022-12-11T08:16:09;22.83;;;14.70;;
18973;SDS011;9621;48.690;9.466;2022-12-11T08:18:38;25.43;;;14.87;;
18973;SDS011;9621;48.690;9.466;2022-12-11T08:21:05;20.27;;;14.50;;
18973;SDS011;9621;48.690;9.466;2022-12-11T08:23:33;22.63;;;15.27;;
18973;SDS011;9621;48.690;9.466;2022-12-11T08:26:02;20.10;;;14.00;;
18973;SDS011;9621;48.690;9.466;2022-12-11T08:28:30;22.10;;;13.87;;
18973;SDS011;9621;48.690;9.466;2022-12-11T08:30:57;19.47;;;13.70;;
18973;SDS011;9621;48.690;9.466;2022-12-11T08:33:25;20.00;;;14.03;;
18973;SDS011;9621;48.690;9.466;2022-12-11T08:35:52;21.20;;;14.53;;
18973;SDS011;9621;48.690;9.466;2022-12-11T08:38:19;22.00;;;14.10;;
18973;SDS011;9621;48.690;9.466;2022-12-11T08:40:46;19.33;;;12.93;;
18973;SDS011;9621;48.690;9.466;2022-12-11T08:43:14;19.53;;;13.73;;
18973;SDS011;9621;48.690;9.466;2022-12-11T08:45:41;17.77;;;13.00;;
18973;SDS011;9621;48.690;9.466;2022-12-11T08:48:08;18.57;;;12.40;;
18973;SDS011;9621;48.690;9.466;2022-12-11T08:50:35;18.43;;;13.40;;
18973;SDS011;9621;48.690;9.466;2022-12-11T08:53:02;19.33;;;13.50;;
18973;SDS011;9621;48.690;9.466;2022-12-11T08:55:31;21.47;;;13.40;;
18973;SDS011;9621;48.690;9.466;2022-12-11T08:57:58;18.23;;;12.70;;
18973;SDS011;9621;48.690;9.466;2022-12-11T09:00:27;19.33;;;13.40;;
18973;SDS011;9621;48.690;9.466;2022-12-11T09:02:53;18.67;;;12.93;;
18973;SDS011;9621;48.690;9.466;2022-12-11T09:05:20;20.03;;;12.90;;
18973;SDS011;9621;48.690;9.466;2022-12-11T09:07:47;18.97;;;13.07;;
18973;SDS011;9621;48.690;9.466;2022-12-11T09:10:14;17.17;;;12.80;;
18973;SDS011;9621;48.690;9.466;2022-12-11T09:12:41;17.17;;;12.70;;
18973;SDS011;9621;48.690;9.466;2022-12-11T09:15:08;17.47;;;12.40;;
18973;SDS011;9621;48.690;9.466;2022-12-11T09:17:37;18.67;;;12.83;;
18973;SDS011;9621;48.690;9.466;2022-12-11T09:20:05;20.73;;;13.37;;
18973;SDS011;9621;48.690;9.466;2022-12-11T09:22:32;19.03;;;13.43;;
18973;SDS011;9621;48.690;9.466;2022-12-11T09:24:59;19.30;;;13.43;;
18973;SDS011;9621;48.690;9.466;2022-12-11T09:27:26;16.93;;;12.30;;
18973;SDS011;9621;48.690;9.466;2022-12-11T09:29:53;19.63;;;12.47;;
18973;SDS011;9621;48.690;9.466;2022-12-11T09:32:20;16.73;;;12.03;;
18973;SDS011;9621;48.690;9.466;2022-12-11T09:34:50;19.23;;;14.20;;
18973;SDS011;9621;48.690;9.466;2022-12-11T09:37:17;17.07;;;12.50;;
18973;SDS011;9621;48.690;9.466;2022-12-11T09:39:44;16.57;;;11.67;;
18973;SDS011;9621;48.690;9.466;2022-12-11T09:42:13;17.63;;;12.93;;
18973;SDS011;9621;48.690;9.466;2022-12-11T09:44:45;19.43;;;13.03;;
18973;SDS011;9621;48.690;9.466;2022-12-11T09:47:19;19.43;;;13.27;;
18973;SDS011;9621;48.690;9.466;2022-12-11T09:50:03;18.57;;;13.40;;
18973;SDS011;9621;48.690;9.466;2022-12-11T09:52:39;18.17;;;13.23;;
18973;SDS011;9621;48.690;9.466;2022-12-11T09:55:14;19.07;;;13.77;;
18973;SDS011;9621;48.690;9.466;2022-12-11T09:57:46;21.63;;;14.27;;
18973;SDS011;9621;48.690;9.466;2022-12-11T10:00:20;18.10;;;13.20;;
18973;SDS011;9621;48.690;9.466;2022-12-11T10:02:58;19.20;;;13.97;;
18973;SDS011;9621;48.690;9.466;2022-12-11T10:05:49;20.00;;;13.80;;
18973;SDS011;9621;48.690;9.466;2022-12-11T10:08:22;19.57;;;13.43;;
18973;SDS011;9621;48.690;9.466;2022-12-11T10:10:56;21.30;;;14.00;;
18973;SDS011;9621;48.690;9.466;2022-12-11T10:13:34;20.57;;;14.50;;
18973;SDS011;9621;48.690;9.466;2022-12-11T10:16:09;18.80;;;13.90;;
18973;SDS011;9621;48.690;9.466;2022-12-11T10:18:45;20.47;;;14.30;;
18973;SDS011;9621;48.690;9.466;2022-12-11T10:21:15;20.90;;;14.27;;
18973;SDS011;9621;48.690;9.466;2022-12-11T10:23:45;19.43;;;13.70;;
18973;SDS011;9621;48.690;9.466;2022-12-11T10:26:17;21.57;;;14.80;;
18973;SDS011;9621;48.690;9.466;2022-12-11T10:28:45;18.13;;;13.37;;
18973;SDS011;9621;48.690;9.466;2022-12-11T10:31:14;22.37;;;14.80;;
18973;SDS011;9621;48.690;9.466;2022-12-11T10:33:45;18.93;;;14.63;;
18973;SDS011;9621;48.690;9.466;2022-12-11T10:36:22;19.30;;;12.57;;
18973;SDS011;9621;48.690;9.466;2022-12-11T10:38:53;21.37;;;14.37;;
18973;SDS011;9621;48.690;9.466;2022-12-11T10:41:20;18.63;;;13.20;;
18973;SDS011;9621;48.690;9.466;2022-12-11T10:43:50;19.17;;;13.90;;
18973;SDS011;9621;48.690;9.466;2022-12-11T10:46:19;17.80;;;13.10;;
18973;SDS011;9621;48.690;9.466;2022-12-11T10:48:47;20.37;;;14.30;;
18973;SDS011;9621;48.690;9.466;2022-12-11T10:51:17;23.07;;;14.30;;
18973;SDS011;9621;48.690;9.466;2022-12-11T10:53:50;25.30;;;14.43;;
18973;SDS011;9621;48.690;9.466;2022-12-11T10:56:23;19.57;;;12.80;;
18973;SDS011;9621;48.690;9.466;2022-12-11T10:58:51;18.17;;;12.77;;
18973;SDS011;9621;48.690;9.466;2022-12-11T11:01:18;20.73;;;13.70;;
18973;SDS011;9621;48.690;9.466;2022-12-11T11:03:56;22.30;;;13.60;;
18973;SDS011;9621;48.690;9.466;2022-12-11T11:06:25;17.30;;;12.33;;
18973;SDS011;9621;48.690;9.466;2022-12-11T11:08:54;16.97;;;12.80;;
18973;SDS011;9621;48.690;9.466;2022-12-11T11:11:24;19.13;;;13.47;;
18973;SDS011;9621;48.690;9.466;2022-12-11T11:14:03;18.13;;;12.67;;
18973;SDS011;9621;48.690;9.466;2022-12-11T11:16:31;18.33;;;12.63;;
18973;SDS011;9621;48.690;9.466;2022-12-11T11:19:02;16.63;;;11.90;;
18973;SDS011;9621;48.690;9.466;2022-12-11T11:21:29;16.63;;;12.53;;
18973;SDS011;9621;48.690;9.466;2022-12-11T11:24:00;16.13;;;11.80;;
18973;SDS011;9621;48.690;9.466;2022-12-11T11:26:29;15.13;;;11.73;;
18973;SDS011;9621;48.690;9.466;2022-12-11T11:28:58;15.70;;;12.17;;
18973;SDS011;9621;48.690;9.466;2022-12-11T11:31:29;15.77;;;11.50;;
18973;SDS011;9621;48.690;9.466;2022-12-11T11:33:58;15.77;;;11.77;;
18973;SDS011;9621;48.690;9.466;2022-12-11T11:36:29;18.23;;;12.33;;
18973;SDS011;9621;48.690;9.466;2022-12-11T11:39:09;16.60;;;11.73;;
18973;SDS011;9621;48.690;9.466;2022-12-11T11:41:45;17.20;;;11.90;;
18973;SDS011;9621;48.690;9.466;2022-12-11T11:44:18;16.37;;;12.87;;
18973;SDS011;9621;48.690;9.466;2022-12-11T11:46:52;19.17;;;11.97;;
18973;SDS011;9621;48.690;9.466;2022-12-11T11:49:23;15.90;;;12.27;;
18973;SDS011;9621;48.690;9.466;2022-12-11T11:52:06;19.83;;;12.83;;
18973;SDS011;9621;48.690;9.466;2022-12-11T11:54:45;19.73;;;13.40;;
18973;SDS011;9621;48.690;9.466;2022-12-11T11:57:16;18.57;;;13.73;;
18973;SDS011;9621;48.690;9.466;2022-12-11T11:59:53;20.47;;;13.73;;
18973;SDS011;9621;48.690;9.466;2022-12-11T12:02:23;19.13;;;13.63;;
18973;SDS011;9621;48.690;9.466;2022-12-11T12:04:50;17.37;;;12.33;;
18973;SDS011;9621;48.690;9.466;2022-12-11T12:07:23;18.67;;;13.17;;
18973;SDS011;9621;48.690;9.466;2022-12-11T12:10:02;17.87;;;12.40;;
18973;SDS011;9621;48.690;9.466;2022-12-11T12:12:44;18.13;;;12.90;;
18973;SDS011;9621;48.690;9.466;2022-12-11T12:15:26;20.30;;;14.17;;
18973;SDS011;9621;48.690;9.466;2022-12-11T12:18:01;22.03;;;14.60;;
18973;SDS011;9621;48.690;9.466;2022-12-11T12:20:37;20.10;;;13.70;;
18973;SDS011;9621;48.690;9.466;2022-12-11T12:23:16;20.27;;;13.53;;
18973;SDS011;9621;48.690;9.466;2022-12-11T12:25:53;20.77;;;13.60;;
18973;SDS011;9621;48.690;9.466;2022-12-11T12:28:27;19.63;;;12.90;;
18973;SDS011;9621;48.690;9.466;2022-12-11T12:31:11;17.17;;;12.77;;
18973;SDS011;9621;48.690;9.466;2022-12-11T12:33:49;19.43;;;13.73;;
18973;SDS011;9621;48.690;9.466;2022-12-11T12:36:26;18.77;;;12.00;;
18973;SDS011;9621;48.690;9.466;2022-12-11T12:39:02;20.73;;;12.87;;
18973;SDS011;9621;48.690;9.466;2022-12-11T12:41:40;18.70;;;12.97;;
18973;SDS011;9621;48.690;9.466;2022-12-11T12:44:16;16.33;;;12.03;;
18973;SDS011;9621;48.690;9.466;2022-12-11T12:46:50;18.33;;;12.87;;
18973;SDS011;9621;48.690;9.466;2022-12-11T12:49:24;17.17;;;12.27;;
18973;SDS011;9621;48.690;9.466;2022-12-11T12:51:57;17.27;;;12.17;;
18973;SDS011;9621;48.690;9.466;2022-12-11T12:54:25;19.97;;;11.77;;
18973;SDS011;9621;48.690;9.466;2022-12-11T12:56:56;18.53;;;11.27;;
18973;SDS011;9621;48.690;9.466;2022-12-11T12:59:24;17.53;;;11.83;;
18973;SDS011;9621;48.690;9.466;2022-12-11T13:01:53;16.33;;;10.50;;
18973;SDS011;9621;48.690;9.466;2022-12-11T13:07:21;18.20;;;11.27;;
18973;SDS011;9621;48.690;9.466;2022-12-11T13:09:55;16.53;;;11.33;;
18973;SDS011;9621;48.690;9.466;2022-12-11T13:12:42;16.70;;;10.53;;
18973;SDS011;9621;48.690;9.466;2022-12-11T13:15:26;22.30;;;11.63;;
18973;SDS011;9621;48.690;9.466;2022-12-11T13:17:59;19.87;;;11.77;;
18973;SDS011;9621;48.690;9.466;2022-12-11T13:20:27;17.63;;;11.97;;
18973;SDS011;9621;48.690;9.466;2022-12-11T13:23:14;20.03;;;12.73;;
18973;SDS011;9621;48.690;9.466;2022-12-11T13:25:45;23.80;;;14.03;;
18973;SDS011;9621;48.690;9.466;2022-12-11T13:33:57;22.40;;;14.13;;
18973;SDS011;9621;48.690;9.466;2022-12-11T13:36:34;23.13;;;13.50;;
18973;SDS011;9621;48.690;9.466;2022-12-11T13:39:04;21.67;;;13.47;;
18973;SDS011;9621;48.690;9.466;2022-12-11T13:41:35;20.93;;;13.50;;
18973;SDS011;9621;48.690;9.466;2022-12-11T13:44:04;20.73;;;13.60;;
18973;SDS011;9621;48.690;9.466;2022-12-11T13:46:34;25.57;;;16.80;;
18973;SDS011;9621;48.690;9.466;2022-12-11T13:49:03;32.93;;;20.37;;
18973;SDS011;9621;48.690;9.466;2022-12-11T13:51:31;29.37;;;18.30;;
18973;SDS011;9621;48.690;9.466;2022-12-11T13:54:02;24.80;;;16.20;;
18973;SDS011;9621;48.690;9.466;2022-12-11T13:56:30;23.37;;;15.77;;
18973;SDS011;9621;48.690;9.466;2022-12-11T13:58:59;22.57;;;14.03;;
18973;SDS011;9621;48.690;9.466;2022-12-11T14:01:30;23.03;;;14.50;;
18973;SDS011;9621;48.690;9.466;2022-12-11T14:04:00;21.57;;;14.33;;
18973;SDS011;9621;48.690;9.466;2022-12-11T14:06:32;21.93;;;15.10;;
18973;SDS011;9621;48.690;9.466;2022-12-11T14:09:00;36.87;;;23.40;;
18973;SDS011;9621;48.690;9.466;2022-12-11T14:11:30;30.80;;;20.63;;
18973;SDS011;9621;48.690;9.466;2022-12-11T14:14:02;33.33;;;20.53;;
18973;SDS011;9621;48.690;9.466;2022-12-11T14:16:33;37.37;;;21.30;;
18973;SDS011;9621;48.690;9.466;2022-12-11T14:19:01;35.90;;;21.03;;
18973;SDS011;9621;48.690;9.466;2022-12-11T14:21:31;25.53;;;15.50;;
18973;SDS011;9621;48.690;9.466;2022-12-11T14:23:58;23.03;;;14.87;;
18973;SDS011;9621;48.690;9.466;2022-12-11T14:26:27;27.53;;;16.13;;
18973;SDS011;9621;48.690;9.466;2022-12-11T14:28:56;28.00;;;16.93;;
18973;SDS011;9621;48.690;9.466;2022-12-11T14:31:24;34.37;;;20.07;;
18973;SDS011;9621;48.690;9.466;2022-12-11T14:34:00;51.33;;;28.43;;
18973;SDS011;9621;48.690;9.466;2022-12-11T14:36:31;46.67;;;25.47;;
18973;SDS011;9621;48.690;9.466;2022-12-11T14:39:01;42.13;;;23.43;;
18973;SDS011;9621;48.690;9.466;2022-12-11T14:41:33;202.50;;;95.83;;
18973;SDS011;9621;48.690;9.466;2022-12-11T14:44:11;142.80;;;62.10;;
18973;SDS011;9621;48.690;9.466;2022-12-11T14:46:41;133.07;;;56.50;;
18973;SDS011;9621;48.690;9.466;2022-12-11T14:49:15;291.67;;;98.93;;
18973;SDS011;9621;48.690;9.466;2022-12-11T14:51:46;124.60;;;49.83;;
18973;SDS011;9621;48.690;9.466;2022-12-11T14:54:17;120.67;;;47.60;;
18973;SDS011;9621;48.690;9.466;2022-12-11T14:56:48;53.90;;;24.77;;
18973;SDS011;9621;48.690;9.466;2022-12-11T14:59:16;38.83;;;19.60;;
18973;SDS011;9621;48.690;9.466;2022-12-11T15:01:55;31.50;;;16.30;;
18973;SDS011;9621;48.690;9.466;2022-12-11T15:04:28;24.10;;;14.20;;
18973;SDS011;9621;48.690;9.466;2022-12-11T15:06:56;30.17;;;18.00;;
18973;SDS011;9621;48.690;9.466;2022-12-11T15:09:26;28.50;;;15.87;;
18973;SDS011;9621;48.690;9.466;2022-12-11T15:11:54;23.07;;;14.47;;
18973;SDS011;9621;48.690;9.466;2022-12-11T15:14:23;27.77;;;16.17;;
18973;SDS011;9621;48.690;9.466;2022-12-11T15:16:52;29.20;;;16.20;;
18973;SDS011;9621;48.690;9.466;2022-12-11T15:19:22;22.97;;;14.67;;
18973;SDS011;9621;48.690;9.466;2022-12-11T15:21:54;24.77;;;15.70;;
18973;SDS011;9621;48.690;9.466;2022-12-11T15:24:29;24.07;;;14.83;;
18973;SDS011;9621;48.690;9.466;2022-12-11T15:27:02;28.80;;;17.60;;
18973;SDS011;9621;48.690;9.466;2022-12-11T15:29:31;32.63;;;19.60;;
